Startpagina
METAR-TAF:

METAR-TAF

Vliegvelden :

Nanking, China

Internationale luchthaven Nanjing Lukou

breedte: 32-00N, lengte: 118-48E, hoogte: 12 m

Actueel weer

Dit bericht is 46 minuten geleden gemaakt, om 02:00 UTC
Wind 6 kt uit het noordnoordwesten, variërend tussen het westnoordwesten en het noorden
Temperatuur 19°C
Vochtigheid 68%
Druk 1019 hPa
Zicht: 3000 m
Heiigheid

METAR: ZSNJ 220200Z 33003MPS 300V360 3000 HZ NSC 19/13 Q1019 NOSIG

Tijdstip: 10:46 (02:46 UTC)

Verwachting

Dit bericht is 7 uur en het 42 minuten geleden gemaakt, om 19:04 UTC
Verwachting geldig van 22 om 00 UTC tot 22 om 24 UTC
Wind 8 kt uit het noorden
Zicht: 3000 m
Heiigheid

TAF: ZSNJ 211904Z 2200/2224 36004MPS 3000 HZ NSC TX22/2206Z TN10/2221Z

Waarnemingen en weersverwachtingen van meer dan 4000 vliegvelden (METAR en TAF).

De beschikbare stations zijn de gele en rode punten op de kaart.

Ga met uw muis naar het station om de naam te zien.

Klik dan om waarnemingen en weersverwachtingen te zien.

kaart wijzigen: klik op de groene knoppen met een zwart kruis om in te zoomen, op de groene knop met een streepje om uit te zoomen of op de groene pijlen voor aangrenzende kaarten.


METAR-TAF: